메인 페이지
METAR-TAF:

METAR-TAF

공항 :

아테네, 그리스

아테네 국제공항

위도: 37-56N, 경도: 023-56E, 고도: 94m

현재 날씨관측

예보는 32분 전, 13:20시(UTC)에 발표되었습니다.
북북동11kt
온도 11°C
습도 76%
기압 1015 hPa
시정 10km 이상
고도 2000ft 상공 구름 조금
고도 4000ft 상공 구름 보통
고도 7000ft 상공 구름 많음

METAR: LGAV 191320Z 03011KT 9999 FEW020 SCT040 BKN070 11/07 Q1015 NOSIG

시각: 15:52 (13:52 UTC)

예보

예보는 2 시간 52분 전, 11:00시(UTC)에 발표되었습니다.
예보 대상 시간: 19일 12시부터 20일 12시까지 (UTC)
여러 방향의 바람 5kt
시정 10km 이상
고도 3000ft 상공 구름 보통
고도 7000ft 상공 구름 많음
일시적
19일 12시부터 19일 18시까지 (UTC)
고도 2500ft 상공 구름 많음
고도 7000ft 상공 구름 많음
확률 40% :
일시적
19일 18시부터 20일 09시까지 (UTC)
시정: 5000m
고도 1500ft 상공 구름 보통
고도 2000ft 상공 구름 많음
고도 7000ft 상공 흐림
전환 중
19일 12시부터 19일 14시까지 (UTC)
북북동12kt

TAF: LGAV 191100Z 1912/2012 VRB05KT 9999 SCT030 BKN070 TEMPO 1912/1918 BKN025 BKN070 PROB40 TEMPO 1918/2009 5000 RA SCT015 BKN020 OVC070 BECMG 1912/1914 03012KT

4,000개 이상의 공항 관측 자료 및 예보 (METAR 및 TAF 보고).

지도상에서 검색 가능한 기상관측소가 노란 점과 빨간 점으로 표시되어 있습니다.

기상관측소 명을 보려면 표시 위로 마우스를 이동하세요.

날씨 관측과 예보를 보려면 클릭하세요.

지도 변경 : 확대하려면 엑스 표시가 있는 녹색 버튼, 축소하려면 빼기 표시가 있는 녹색 버튼, 다음 페이지의 지도를 보려면 녹색 화살표를 클릭하세요.


METAR-TAF: